sensor_id;sensor_type;location;lat;lon;timestamp;P1;durP1;ratioP1;P2;durP2;ratioP2
25449;SDS011;13371;52.080;5.624;2023-04-06T00:00:48;7.57;;;3.20;;
25449;SDS011;13371;52.080;5.624;2023-04-06T00:03:14;8.43;;;3.35;;
25449;SDS011;13371;52.080;5.624;2023-04-06T00:05:40;7.63;;;3.08;;
25449;SDS011;13371;52.080;5.624;2023-04-06T00:08:06;6.65;;;2.92;;
25449;SDS011;13371;52.080;5.624;2023-04-06T00:10:32;8.35;;;4.00;;
25449;SDS011;13371;52.080;5.624;2023-04-06T00:12:58;6.93;;;3.28;;
25449;SDS011;13371;52.080;5.624;2023-04-06T00:15:24;4.22;;;2.20;;
25449;SDS011;13371;52.080;5.624;2023-04-06T00:17:50;7.97;;;3.00;;
25449;SDS011;13371;52.080;5.624;2023-04-06T00:20:16;6.88;;;3.20;;
25449;SDS011;13371;52.080;5.624;2023-04-06T00:22:42;14.43;;;3.35;;
25449;SDS011;13371;52.080;5.624;2023-04-06T00:25:09;10.75;;;3.72;;
25449;SDS011;13371;52.080;5.624;2023-04-06T00:27:35;5.82;;;2.38;;
25449;SDS011;13371;52.080;5.624;2023-04-06T00:30:02;8.00;;;3.20;;
25449;SDS011;13371;52.080;5.624;2023-04-06T00:32:31;4.72;;;2.53;;
25449;SDS011;13371;52.080;5.624;2023-04-06T00:34:57;6.25;;;3.33;;
25449;SDS011;13371;52.080;5.624;2023-04-06T00:37:23;7.60;;;3.60;;
25449;SDS011;13371;52.080;5.624;2023-04-06T00:39:48;8.63;;;2.97;;
25449;SDS011;13371;52.080;5.624;2023-04-06T00:42:16;8.15;;;2.92;;
25449;SDS011;13371;52.080;5.624;2023-04-06T00:44:43;6.43;;;2.63;;
25449;SDS011;13371;52.080;5.624;2023-04-06T00:47:08;5.70;;;2.90;;
25449;SDS011;13371;52.080;5.624;2023-04-06T00:49:34;8.20;;;3.90;;
25449;SDS011;13371;52.080;5.624;2023-04-06T00:52:00;5.85;;;2.38;;
25449;SDS011;13371;52.080;5.624;2023-04-06T00:54:26;8.93;;;2.85;;
25449;SDS011;13371;52.080;5.624;2023-04-06T00:56:53;6.25;;;2.72;;
25449;SDS011;13371;52.080;5.624;2023-04-06T00:59:18;8.13;;;3.47;;
25449;SDS011;13371;52.080;5.624;2023-04-06T01:01:44;6.97;;;3.53;;
25449;SDS011;13371;52.080;5.624;2023-04-06T01:04:10;5.18;;;2.63;;
25449;SDS011;13371;52.080;5.624;2023-04-06T01:06:35;6.10;;;3.15;;
25449;SDS011;13371;52.080;5.624;2023-04-06T01:09:01;7.10;;;2.90;;
25449;SDS011;13371;52.080;5.624;2023-04-06T01:11:27;9.13;;;3.30;;
25449;SDS011;13371;52.080;5.624;2023-04-06T01:13:53;5.70;;;2.42;;
25449;SDS011;13371;52.080;5.624;2023-04-06T01:16:18;8.57;;;2.75;;
25449;SDS011;13371;52.080;5.624;2023-04-06T01:18:44;5.10;;;2.53;;
25449;SDS011;13371;52.080;5.624;2023-04-06T01:21:10;6.20;;;2.13;;
25449;SDS011;13371;52.080;5.624;2023-04-06T01:23:41;6.35;;;2.67;;
25449;SDS011;13371;52.080;5.624;2023-04-06T01:26:11;9.65;;;2.90;;
25449;SDS011;13371;52.080;5.624;2023-04-06T01:28:37;6.75;;;2.72;;
25449;SDS011;13371;52.080;5.624;2023-04-06T01:31:03;6.60;;;3.25;;
25449;SDS011;13371;52.080;5.624;2023-04-06T01:33:29;7.43;;;2.95;;
25449;SDS011;13371;52.080;5.624;2023-04-06T01:35:55;6.85;;;2.85;;
25449;SDS011;13371;52.080;5.624;2023-04-06T01:38:21;8.73;;;2.85;;
25449;SDS011;13371;52.080;5.624;2023-04-06T01:40:46;4.97;;;2.35;;
25449;SDS011;13371;52.080;5.624;2023-04-06T01:43:12;8.90;;;4.68;;
25449;SDS011;13371;52.080;5.624;2023-04-06T01:45:37;7.35;;;2.67;;
25449;SDS011;13371;52.080;5.624;2023-04-06T01:48:03;7.00;;;2.92;;
25449;SDS011;13371;52.080;5.624;2023-04-06T01:50:29;8.57;;;3.22;;
25449;SDS011;13371;52.080;5.624;2023-04-06T01:52:55;8.63;;;3.58;;
25449;SDS011;13371;52.080;5.624;2023-04-06T01:55:20;6.63;;;2.70;;
25449;SDS011;13371;52.080;5.624;2023-04-06T01:57:46;7.80;;;2.85;;
25449;SDS011;13371;52.080;5.624;2023-04-06T02:00:12;6.60;;;3.05;;
25449;SDS011;13371;52.080;5.624;2023-04-06T02:02:38;6.28;;;2.88;;
25449;SDS011;13371;52.080;5.624;2023-04-06T02:05:03;7.75;;;2.90;;
25449;SDS011;13371;52.080;5.624;2023-04-06T02:07:29;7.00;;;3.42;;
25449;SDS011;13371;52.080;5.624;2023-04-06T02:09:55;6.88;;;2.83;;
25449;SDS011;13371;52.080;5.624;2023-04-06T02:12:21;7.18;;;3.28;;
25449;SDS011;13371;52.080;5.624;2023-04-06T02:14:46;8.93;;;3.30;;
25449;SDS011;13371;52.080;5.624;2023-04-06T02:17:12;7.97;;;2.67;;
25449;SDS011;13371;52.080;5.624;2023-04-06T02:19:37;7.32;;;2.58;;
25449;SDS011;13371;52.080;5.624;2023-04-06T02:22:03;6.53;;;2.88;;
25449;SDS011;13371;52.080;5.624;2023-04-06T02:24:28;6.70;;;2.85;;
25449;SDS011;13371;52.080;5.624;2023-04-06T02:26:54;7.38;;;2.75;;
25449;SDS011;13371;52.080;5.624;2023-04-06T02:29:19;8.35;;;2.92;;
25449;SDS011;13371;52.080;5.624;2023-04-06T02:31:45;8.00;;;3.40;;
25449;SDS011;13371;52.080;5.624;2023-04-06T02:34:11;4.70;;;2.38;;
25449;SDS011;13371;52.080;5.624;2023-04-06T02:36:42;5.30;;;2.63;;
25449;SDS011;13371;52.080;5.624;2023-04-06T02:39:11;5.63;;;2.17;;
25449;SDS011;13371;52.080;5.624;2023-04-06T02:41:37;5.78;;;2.67;;
25449;SDS011;13371;52.080;5.624;2023-04-06T02:44:03;7.18;;;2.92;;
25449;SDS011;13371;52.080;5.624;2023-04-06T02:46:30;5.38;;;2.60;;
25449;SDS011;13371;52.080;5.624;2023-04-06T02:48:56;8.60;;;3.33;;
25449;SDS011;13371;52.080;5.624;2023-04-06T02:51:21;7.05;;;3.50;;
25449;SDS011;13371;52.080;5.624;2023-04-06T02:53:47;6.18;;;2.97;;
25449;SDS011;13371;52.080;5.624;2023-04-06T02:56:12;6.75;;;2.63;;
25449;SDS011;13371;52.080;5.624;2023-04-06T02:58:38;4.80;;;3.30;;
25449;SDS011;13371;52.080;5.624;2023-04-06T03:01:03;11.55;;;3.22;;
25449;SDS011;13371;52.080;5.624;2023-04-06T03:03:29;9.77;;;3.42;;
25449;SDS011;13371;52.080;5.624;2023-04-06T03:05:55;5.10;;;3.00;;
25449;SDS011;13371;52.080;5.624;2023-04-06T03:08:23;6.00;;;3.03;;
25449;SDS011;13371;52.080;5.624;2023-04-06T03:10:49;6.22;;;3.10;;
25449;SDS011;13371;52.080;5.624;2023-04-06T03:13:15;7.65;;;3.55;;
25449;SDS011;13371;52.080;5.624;2023-04-06T03:15:40;7.13;;;3.08;;
25449;SDS011;13371;52.080;5.624;2023-04-06T03:18:06;7.32;;;2.85;;
25449;SDS011;13371;52.080;5.624;2023-04-06T03:20:31;8.30;;;3.40;;
25449;SDS011;13371;52.080;5.624;2023-04-06T03:22:57;5.72;;;3.05;;
25449;SDS011;13371;52.080;5.624;2023-04-06T03:25:23;7.60;;;2.83;;
25449;SDS011;13371;52.080;5.624;2023-04-06T03:27:48;8.45;;;3.25;;
25449;SDS011;13371;52.080;5.624;2023-04-06T03:30:14;7.40;;;3.90;;
25449;SDS011;13371;52.080;5.624;2023-04-06T03:32:42;4.72;;;2.33;;
25449;SDS011;13371;52.080;5.624;2023-04-06T03:35:10;8.75;;;3.63;;
25449;SDS011;13371;52.080;5.624;2023-04-06T03:37:36;8.27;;;3.22;;
25449;SDS011;13371;52.080;5.624;2023-04-06T03:40:02;5.78;;;3.35;;
25449;SDS011;13371;52.080;5.624;2023-04-06T03:42:28;7.65;;;3.35;;
25449;SDS011;13371;52.080;5.624;2023-04-06T03:44:54;6.25;;;2.97;;
25449;SDS011;13371;52.080;5.624;2023-04-06T03:47:20;8.80;;;3.63;;
25449;SDS011;13371;52.080;5.624;2023-04-06T03:49:47;6.07;;;2.95;;
25449;SDS011;13371;52.080;5.624;2023-04-06T03:52:13;6.13;;;3.20;;
25449;SDS011;13371;52.080;5.624;2023-04-06T03:54:38;8.00;;;3.65;;
25449;SDS011;13371;52.080;5.624;2023-04-06T03:57:04;8.65;;;3.75;;
25449;SDS011;13371;52.080;5.624;2023-04-06T03:59:30;5.88;;;3.20;;
25449;SDS011;13371;52.080;5.624;2023-04-06T04:01:55;7.82;;;3.13;;
25449;SDS011;13371;52.080;5.624;2023-04-06T04:04:21;6.55;;;2.90;;
25449;SDS011;13371;52.080;5.624;2023-04-06T04:06:46;8.98;;;3.80;;
25449;SDS011;13371;52.080;5.624;2023-04-06T04:09:12;7.90;;;3.83;;
25449;SDS011;13371;52.080;5.624;2023-04-06T04:11:38;8.18;;;3.38;;
25449;SDS011;13371;52.080;5.624;2023-04-06T04:14:03;9.65;;;2.97;;
25449;SDS011;13371;52.080;5.624;2023-04-06T04:16:29;7.00;;;3.45;;
25449;SDS011;13371;52.080;5.624;2023-04-06T04:18:54;7.30;;;3.25;;
25449;SDS011;13371;52.080;5.624;2023-04-06T04:21:20;7.25;;;3.28;;
25449;SDS011;13371;52.080;5.624;2023-04-06T04:23:46;8.02;;;3.15;;
25449;SDS011;13371;52.080;5.624;2023-04-06T04:26:11;6.47;;;3.38;;
25449;SDS011;13371;52.080;5.624;2023-04-06T04:28:37;5.07;;;2.60;;
25449;SDS011;13371;52.080;5.624;2023-04-06T04:31:02;6.72;;;3.42;;
25449;SDS011;13371;52.080;5.624;2023-04-06T04:33:28;10.48;;;3.50;;
25449;SDS011;13371;52.080;5.624;2023-04-06T04:35:53;7.35;;;3.50;;
25449;SDS011;13371;52.080;5.624;2023-04-06T04:38:19;14.07;;;4.38;;
25449;SDS011;13371;52.080;5.624;2023-04-06T04:40:45;8.35;;;4.30;;
25449;SDS011;13371;52.080;5.624;2023-04-06T04:43:11;9.40;;;3.90;;
25449;SDS011;13371;52.080;5.624;2023-04-06T04:45:36;7.60;;;3.40;;
25449;SDS011;13371;52.080;5.624;2023-04-06T04:48:02;8.80;;;3.42;;
25449;SDS011;13371;52.080;5.624;2023-04-06T04:50:29;8.95;;;4.13;;
25449;SDS011;13371;52.080;5.624;2023-04-06T04:52:55;5.97;;;3.42;;
25449;SDS011;13371;52.080;5.624;2023-04-06T04:55:21;9.07;;;3.75;;
25449;SDS011;13371;52.080;5.624;2023-04-06T04:57:46;8.18;;;3.63;;
25449;SDS011;13371;52.080;5.624;2023-04-06T05:00:12;8.45;;;3.75;;
25449;SDS011;13371;52.080;5.624;2023-04-06T05:02:38;10.43;;;4.25;;
25449;SDS011;13371;52.080;5.624;2023-04-06T05:05:04;9.68;;;4.00;;
25449;SDS011;13371;52.080;5.624;2023-04-06T05:07:30;7.03;;;3.25;;
25449;SDS011;13371;52.080;5.624;2023-04-06T05:09:55;6.68;;;3.10;;
25449;SDS011;13371;52.080;5.624;2023-04-06T05:12:21;7.45;;;3.72;;
25449;SDS011;13371;52.080;5.624;2023-04-06T05:14:46;7.03;;;3.45;;
25449;SDS011;13371;52.080;5.624;2023-04-06T05:17:12;8.52;;;4.50;;
25449;SDS011;13371;52.080;5.624;2023-04-06T05:19:38;7.93;;;3.72;;
25449;SDS011;13371;52.080;5.624;2023-04-06T05:22:03;11.05;;;4.28;;
25449;SDS011;13371;52.080;5.624;2023-04-06T05:24:29;8.73;;;4.22;;
25449;SDS011;13371;52.080;5.624;2023-04-06T05:26:55;11.90;;;4.30;;
25449;SDS011;13371;52.080;5.624;2023-04-06T05:29:20;10.95;;;3.97;;
25449;SDS011;13371;52.080;5.624;2023-04-06T05:31:46;10.40;;;4.35;;
25449;SDS011;13371;52.080;5.624;2023-04-06T05:34:12;8.82;;;4.28;;
25449;SDS011;13371;52.080;5.624;2023-04-06T05:36:38;9.15;;;4.30;;
25449;SDS011;13371;52.080;5.624;2023-04-06T05:39:05;12.15;;;6.15;;
25449;SDS011;13371;52.080;5.624;2023-04-06T05:41:30;9.18;;;4.78;;
25449;SDS011;13371;52.080;5.624;2023-04-06T05:43:56;13.48;;;4.95;;
25449;SDS011;13371;52.080;5.624;2023-04-06T05:46:22;10.05;;;4.45;;
25449;SDS011;13371;52.080;5.624;2023-04-06T05:48:47;9.02;;;4.55;;
25449;SDS011;13371;52.080;5.624;2023-04-06T05:51:13;11.27;;;4.72;;
25449;SDS011;13371;52.080;5.624;2023-04-06T05:53:38;10.90;;;5.60;;
25449;SDS011;13371;52.080;5.624;2023-04-06T05:56:04;12.68;;;5.05;;
25449;SDS011;13371;52.080;5.624;2023-04-06T05:58:30;12.55;;;4.97;;
25449;SDS011;13371;52.080;5.624;2023-04-06T06:00:56;10.98;;;5.35;;
25449;SDS011;13371;52.080;5.624;2023-04-06T06:03:22;15.68;;;4.75;;
25449;SDS011;13371;52.080;5.624;2023-04-06T06:05:48;11.20;;;5.00;;
25449;SDS011;13371;52.080;5.624;2023-04-06T06:08:13;14.35;;;5.15;;
25449;SDS011;13371;52.080;5.624;2023-04-06T06:10:39;10.00;;;4.68;;
25449;SDS011;13371;52.080;5.624;2023-04-06T06:13:05;11.25;;;4.93;;
25449;SDS011;13371;52.080;5.624;2023-04-06T06:15:31;9.80;;;5.05;;
25449;SDS011;13371;52.080;5.624;2023-04-06T06:17:56;13.90;;;5.45;;
25449;SDS011;13371;52.080;5.624;2023-04-06T06:20:22;17.25;;;5.10;;
25449;SDS011;13371;52.080;5.624;2023-04-06T06:22:47;12.77;;;5.35;;
25449;SDS011;13371;52.080;5.624;2023-04-06T06:25:13;13.57;;;5.88;;
25449;SDS011;13371;52.080;5.624;2023-04-06T06:27:38;12.68;;;5.70;;
25449;SDS011;13371;52.080;5.624;2023-04-06T06:30:04;13.90;;;5.95;;
25449;SDS011;13371;52.080;5.624;2023-04-06T06:32:30;13.52;;;5.80;;
25449;SDS011;13371;52.080;5.624;2023-04-06T06:34:57;14.18;;;5.82;;
25449;SDS011;13371;52.080;5.624;2023-04-06T06:37:22;13.63;;;6.82;;
25449;SDS011;13371;52.080;5.624;2023-04-06T06:39:48;12.98;;;5.45;;
25449;SDS011;13371;52.080;5.624;2023-04-06T06:42:13;27.50;;;6.60;;
25449;SDS011;13371;52.080;5.624;2023-04-06T06:44:39;14.32;;;6.35;;
25449;SDS011;13371;52.080;5.624;2023-04-06T06:47:04;16.70;;;6.00;;
25449;SDS011;13371;52.080;5.624;2023-04-06T06:49:30;16.35;;;5.82;;
25449;SDS011;13371;52.080;5.624;2023-04-06T06:51:56;21.17;;;5.90;;
25449;SDS011;13371;52.080;5.624;2023-04-06T06:54:21;14.85;;;6.38;;
25449;SDS011;13371;52.080;5.624;2023-04-06T06:56:47;13.40;;;6.32;;
25449;SDS011;13371;52.080;5.624;2023-04-06T06:59:12;16.23;;;6.75;;
25449;SDS011;13371;52.080;5.624;2023-04-06T07:01:38;12.93;;;5.53;;
25449;SDS011;13371;52.080;5.624;2023-04-06T07:04:03;16.38;;;6.60;;
25449;SDS011;13371;52.080;5.624;2023-04-06T07:06:29;15.50;;;7.38;;
25449;SDS011;13371;52.080;5.624;2023-04-06T07:08:54;23.17;;;8.20;;
25449;SDS011;13371;52.080;5.624;2023-04-06T07:11:20;16.40;;;8.23;;
25449;SDS011;13371;52.080;5.624;2023-04-06T07:13:46;18.83;;;7.05;;
25449;SDS011;13371;52.080;5.624;2023-04-06T07:16:11;16.83;;;6.72;;
25449;SDS011;13371;52.080;5.624;2023-04-06T07:18:37;12.70;;;5.93;;
25449;SDS011;13371;52.080;5.624;2023-04-06T07:21:02;15.43;;;6.65;;
25449;SDS011;13371;52.080;5.624;2023-04-06T07:23:28;15.70;;;6.35;;
25449;SDS011;13371;52.080;5.624;2023-04-06T07:25:53;16.88;;;7.65;;
25449;SDS011;13371;52.080;5.624;2023-04-06T07:28:19;17.17;;;7.22;;
25449;SDS011;13371;52.080;5.624;2023-04-06T07:30:45;15.73;;;5.80;;
25449;SDS011;13371;52.080;5.624;2023-04-06T07:33:10;19.83;;;7.22;;
25449;SDS011;13371;52.080;5.624;2023-04-06T07:35:36;17.52;;;6.68;;
25449;SDS011;13371;52.080;5.624;2023-04-06T07:38:02;11.90;;;5.85;;
25449;SDS011;13371;52.080;5.624;2023-04-06T07:40:28;17.63;;;6.82;;
25449;SDS011;13371;52.080;5.624;2023-04-06T07:42:56;11.32;;;5.75;;
25449;SDS011;13371;52.080;5.624;2023-04-06T07:45:22;13.07;;;6.00;;
25449;SDS011;13371;52.080;5.624;2023-04-06T07:47:48;15.95;;;8.10;;
25449;SDS011;13371;52.080;5.624;2023-04-06T07:50:14;20.42;;;9.48;;
25449;SDS011;13371;52.080;5.624;2023-04-06T07:52:40;22.13;;;8.30;;
25449;SDS011;13371;52.080;5.624;2023-04-06T07:55:06;15.68;;;6.47;;
25449;SDS011;13371;52.080;5.624;2023-04-06T07:57:31;17.67;;;7.32;;
25449;SDS011;13371;52.080;5.624;2023-04-06T07:59:57;14.35;;;7.43;;
25449;SDS011;13371;52.080;5.624;2023-04-06T08:02:22;13.60;;;6.35;;
25449;SDS011;13371;52.080;5.624;2023-04-06T08:04:48;16.88;;;8.23;;
25449;SDS011;13371;52.080;5.624;2023-04-06T08:07:13;17.65;;;6.10;;
25449;SDS011;13371;52.080;5.624;2023-04-06T08:09:39;18.98;;;7.57;;
25449;SDS011;13371;52.080;5.624;2023-04-06T08:12:05;17.92;;;7.82;;
25449;SDS011;13371;52.080;5.624;2023-04-06T08:14:30;15.98;;;7.32;;
25449;SDS011;13371;52.080;5.624;2023-04-06T08:16:56;16.85;;;7.30;;
25449;SDS011;13371;52.080;5.624;2023-04-06T08:19:22;14.85;;;6.78;;
25449;SDS011;13371;52.080;5.624;2023-04-06T08:21:48;17.60;;;7.82;;
25449;SDS011;13371;52.080;5.624;2023-04-06T08:24:13;13.35;;;6.90;;
25449;SDS011;13371;52.080;5.624;2023-04-06T08:26:39;16.45;;;6.07;;
25449;SDS011;13371;52.080;5.624;2023-04-06T08:29:05;13.15;;;6.75;;
25449;SDS011;13371;52.080;5.624;2023-04-06T08:31:34;18.13;;;7.65;;
25449;SDS011;13371;52.080;5.624;2023-04-06T08:34:00;17.98;;;7.63;;
25449;SDS011;13371;52.080;5.624;2023-04-06T08:36:26;14.07;;;6.88;;
25449;SDS011;13371;52.080;5.624;2023-04-06T08:38:52;17.45;;;7.72;;
25449;SDS011;13371;52.080;5.624;2023-04-06T08:41:18;13.98;;;7.18;;
25449;SDS011;13371;52.080;5.624;2023-04-06T08:43:57;13.30;;;7.20;;
25449;SDS011;13371;52.080;5.624;2023-04-06T08:46:25;12.30;;;6.30;;
25449;SDS011;13371;52.080;5.624;2023-04-06T08:48:57;17.38;;;8.07;;
25449;SDS011;13371;52.080;5.624;2023-04-06T08:51:25;14.50;;;6.93;;
25449;SDS011;13371;52.080;5.624;2023-04-06T08:53:52;17.08;;;7.15;;
25449;SDS011;13371;52.080;5.624;2023-04-06T08:56:21;16.80;;;7.45;;
25449;SDS011;13371;52.080;5.624;2023-04-06T08:58:48;16.30;;;7.95;;
25449;SDS011;13371;52.080;5.624;2023-04-06T09:01:14;14.52;;;7.18;;
25449;SDS011;13371;52.080;5.624;2023-04-06T09:03:45;20.95;;;7.88;;
25449;SDS011;13371;52.080;5.624;2023-04-06T09:06:12;16.90;;;8.15;;
25449;SDS011;13371;52.080;5.624;2023-04-06T09:08:38;15.98;;;6.90;;
25449;SDS011;13371;52.080;5.624;2023-04-06T09:11:05;18.48;;;7.80;;
25449;SDS011;13371;52.080;5.624;2023-04-06T09:13:43;23.48;;;8.02;;
25449;SDS011;13371;52.080;5.624;2023-04-06T09:16:13;20.55;;;8.07;;
25449;SDS011;13371;52.080;5.624;2023-04-06T09:18:40;17.73;;;7.32;;
25449;SDS011;13371;52.080;5.624;2023-04-06T09:21:06;16.80;;;8.35;;
25449;SDS011;13371;52.080;5.624;2023-04-06T09:23:32;16.88;;;7.95;;
25449;SDS011;13371;52.080;5.624;2023-04-06T09:26:09;16.92;;;7.40;;
25449;SDS011;13371;52.080;5.624;2023-04-06T09:28:48;15.18;;;7.72;;
25449;SDS011;13371;52.080;5.624;2023-04-06T09:31:25;21.42;;;9.32;;
25449;SDS011;13371;52.080;5.624;2023-04-06T09:33:52;20.83;;;8.23;;
25449;SDS011;13371;52.080;5.624;2023-04-06T09:36:18;18.33;;;8.02;;
25449;SDS011;13371;52.080;5.624;2023-04-06T09:38:57;16.98;;;8.98;;
25449;SDS011;13371;52.080;5.624;2023-04-06T09:41:34;17.52;;;7.97;;
25449;SDS011;13371;52.080;5.624;2023-04-06T09:46:39;19.58;;;8.82;;
25449;SDS011;13371;52.080;5.624;2023-04-06T09:49:08;19.77;;;8.85;;
25449;SDS011;13371;52.080;5.624;2023-04-06T09:51:39;18.90;;;8.43;;
25449;SDS011;13371;52.080;5.624;2023-04-06T09:54:06;17.95;;;8.50;;
25449;SDS011;13371;52.080;5.624;2023-04-06T09:56:46;15.52;;;7.95;;
25449;SDS011;13371;52.080;5.624;2023-04-06T09:59:21;15.93;;;7.90;;
25449;SDS011;13371;52.080;5.624;2023-04-06T10:02:08;15.77;;;7.60;;
25449;SDS011;13371;52.080;5.624;2023-04-06T10:04:56;21.25;;;9.27;;
25449;SDS011;13371;52.080;5.624;2023-04-06T10:07:27;20.75;;;8.90;;
25449;SDS011;13371;52.080;5.624;2023-04-06T10:09:53;20.67;;;9.15;;
25449;SDS011;13371;52.080;5.624;2023-04-06T10:12:20;18.65;;;8.82;;
25449;SDS011;13371;52.080;5.624;2023-04-06T10:14:46;15.00;;;8.05;;
25449;SDS011;13371;52.080;5.624;2023-04-06T10:17:12;19.65;;;9.35;;
25449;SDS011;13371;52.080;5.624;2023-04-06T10:19:49;20.42;;;9.82;;
25449;SDS011;13371;52.080;5.624;2023-04-06T10:22:29;22.73;;;9.35;;
25449;SDS011;13371;52.080;5.624;2023-04-06T10:24:59;18.73;;;9.70;;
25449;SDS011;13371;52.080;5.624;2023-04-06T10:27:28;17.83;;;8.45;;
25449;SDS011;13371;52.080;5.624;2023-04-06T10:29:54;22.38;;;9.32;;
25449;SDS011;13371;52.080;5.624;2023-04-06T10:32:34;15.97;;;9.13;;
25449;SDS011;13371;52.080;5.624;2023-04-06T10:35:06;18.17;;;8.65;;
25449;SDS011;13371;52.080;5.624;2023-04-06T10:37:45;18.35;;;8.00;;
25449;SDS011;13371;52.080;5.624;2023-04-06T10:40:20;19.20;;;8.60;;
25449;SDS011;13371;52.080;5.624;2023-04-06T10:42:51;14.85;;;8.20;;
25449;SDS011;13371;52.080;5.624;2023-04-06T10:45:21;16.90;;;7.85;;
25449;SDS011;13371;52.080;5.624;2023-04-06T10:47:47;20.05;;;9.07;;
25449;SDS011;13371;52.080;5.624;2023-04-06T10:50:16;16.85;;;7.80;;
25449;SDS011;13371;52.080;5.624;2023-04-06T10:52:45;15.90;;;7.32;;
25449;SDS011;13371;52.080;5.624;2023-04-06T10:55:11;13.63;;;6.93;;
25449;SDS011;13371;52.080;5.624;2023-04-06T10:57:39;15.50;;;7.00;;
25449;SDS011;13371;52.080;5.624;2023-04-06T11:00:05;13.70;;;7.15;;
25449;SDS011;13371;52.080;5.624;2023-04-06T11:02:32;15.35;;;7.20;;
25449;SDS011;13371;52.080;5.624;2023-04-06T11:04:59;11.18;;;6.05;;
25449;SDS011;13371;52.080;5.624;2023-04-06T11:07:26;13.65;;;7.10;;
25449;SDS011;13371;52.080;5.624;2023-04-06T11:09:52;15.70;;;7.05;;
25449;SDS011;13371;52.080;5.624;2023-04-06T11:12:27;12.13;;;6.95;;
25449;SDS011;13371;52.080;5.624;2023-04-06T11:14:56;12.77;;;6.75;;
25449;SDS011;13371;52.080;5.624;2023-04-06T11:17:28;16.33;;;6.47;;
25449;SDS011;13371;52.080;5.624;2023-04-06T11:19:55;13.40;;;6.55;;
25449;SDS011;13371;52.080;5.624;2023-04-06T11:22:21;7.90;;;4.47;;
25449;SDS011;13371;52.080;5.624;2023-04-06T11:24:47;10.82;;;4.97;;
25449;SDS011;13371;52.080;5.624;2023-04-06T11:27:14;8.70;;;4.18;;
25449;SDS011;13371;52.080;5.624;2023-04-06T11:29:43;7.40;;;4.05;;
25449;SDS011;13371;52.080;5.624;2023-04-06T11:32:11;8.85;;;4.15;;
25449;SDS011;13371;52.080;5.624;2023-04-06T11:34:44;8.25;;;4.25;;
25449;SDS011;13371;52.080;5.624;2023-04-06T11:37:12;7.78;;;4.03;;
25449;SDS011;13371;52.080;5.624;2023-04-06T11:39:48;8.63;;;4.55;;
25449;SDS011;13371;52.080;5.624;2023-04-06T11:42:25;8.30;;;3.30;;
25449;SDS011;13371;52.080;5.624;2023-04-06T11:44:55;7.38;;;3.90;;
25449;SDS011;13371;52.080;5.624;2023-04-06T11:47:35;10.10;;;4.22;;
25449;SDS011;13371;52.080;5.624;2023-04-06T11:50:08;12.18;;;3.22;;
25449;SDS011;13371;52.080;5.624;2023-04-06T11:52:35;8.88;;;3.75;;
25449;SDS011;13371;52.080;5.624;2023-04-06T11:55:10;12.02;;;4.57;;
25449;SDS011;13371;52.080;5.624;2023-04-06T11:57:40;9.07;;;4.68;;
25449;SDS011;13371;52.080;5.624;2023-04-06T12:00:07;7.28;;;4.28;;
25449;SDS011;13371;52.080;5.624;2023-04-06T12:02:34;11.20;;;4.15;;
25449;SDS011;13371;52.080;5.624;2023-04-06T12:05:01;5.85;;;3.60;;
25449;SDS011;13371;52.080;5.624;2023-04-06T12:07:28;7.65;;;3.33;;
25449;SDS011;13371;52.080;5.624;2023-04-06T12:09:54;9.32;;;3.60;;
25449;SDS011;13371;52.080;5.624;2023-04-06T12:12:20;6.70;;;4.13;;
25449;SDS011;13371;52.080;5.624;2023-04-06T12:14:45;7.20;;;3.55;;
25449;SDS011;13371;52.080;5.624;2023-04-06T12:17:11;8.30;;;3.65;;
25449;SDS011;13371;52.080;5.624;2023-04-06T12:19:37;8.88;;;3.45;;
25449;SDS011;13371;52.080;5.624;2023-04-06T12:22:02;8.52;;;3.45;;
25449;SDS011;13371;52.080;5.624;2023-04-06T12:24:28;9.27;;;3.38;;
25449;SDS011;13371;52.080;5.624;2023-04-06T12:26:54;7.10;;;3.72;;
25449;SDS011;13371;52.080;5.624;2023-04-06T12:29:20;13.10;;;3.25;;
25449;SDS011;13371;52.080;5.624;2023-04-06T12:31:45;8.80;;;3.60;;
25449;SDS011;13371;52.080;5.624;2023-04-06T12:34:11;6.90;;;2.85;;
25449;SDS011;13371;52.080;5.624;2023-04-06T12:36:37;6.68;;;3.22;;
25449;SDS011;13371;52.080;5.624;2023-04-06T12:39:03;9.23;;;3.67;;
25449;SDS011;13371;52.080;5.624;2023-04-06T12:41:29;5.38;;;2.15;;
25449;SDS011;13371;52.080;5.624;2023-04-06T12:43:55;5.43;;;3.17;;
25449;SDS011;13371;52.080;5.624;2023-04-06T12:46:21;6.20;;;2.90;;
25449;SDS011;13371;52.080;5.624;2023-04-06T12:48:47;6.32;;;2.80;;
25449;SDS011;13371;52.080;5.624;2023-04-06T12:51:12;5.45;;;2.83;;
25449;SDS011;13371;52.080;5.624;2023-04-06T12:53:38;6.43;;;2.75;;
25449;SDS011;13371;52.080;5.624;2023-04-06T12:56:14;5.13;;;3.30;;
25449;SDS011;13371;52.080;5.624;2023-04-06T12:58:45;6.05;;;3.03;;
25449;SDS011;13371;52.080;5.624;2023-04-06T13:01:11;7.07;;;3.45;;
25449;SDS011;13371;52.080;5.624;2023-04-06T13:03:38;8.23;;;3.60;;
25449;SDS011;13371;52.080;5.624;2023-04-06T13:06:04;5.75;;;2.60;;
25449;SDS011;13371;52.080;5.624;2023-04-06T13:08:29;6.20;;;2.92;;
25449;SDS011;13371;52.080;5.624;2023-04-06T13:10:55;7.43;;;3.83;;
25449;SDS011;13371;52.080;5.624;2023-04-06T13:13:28;9.55;;;3.70;;
25449;SDS011;13371;52.080;5.624;2023-04-06T13:18:26;7.18;;;3.33;;
25449;SDS011;13371;52.080;5.624;2023-04-06T13:20:51;3.03;;;1.90;;
25449;SDS011;13371;52.080;5.624;2023-04-06T13:23:17;7.40;;;3.45;;
25449;SDS011;13371;52.080;5.624;2023-04-06T13:25:42;10.73;;;3.95;;
25449;SDS011;13371;52.080;5.624;2023-04-06T13:28:08;6.50;;;3.63;;
25449;SDS011;13371;52.080;5.624;2023-04-06T13:30:35;7.35;;;3.45;;
25449;SDS011;13371;52.080;5.624;2023-04-06T13:33:01;12.65;;;3.10;;
25449;SDS011;13371;52.080;5.624;2023-04-06T13:35:27;6.40;;;2.90;;
25449;SDS011;13371;52.080;5.624;2023-04-06T13:37:52;8.60;;;3.47;;
25449;SDS011;13371;52.080;5.624;2023-04-06T13:40:18;7.03;;;3.58;;
25449;SDS011;13371;52.080;5.624;2023-04-06T13:42:44;6.93;;;2.80;;
25449;SDS011;13371;52.080;5.624;2023-04-06T13:45:11;6.32;;;3.58;;
25449;SDS011;13371;52.080;5.624;2023-04-06T13:47:37;5.78;;;3.10;;
25449;SDS011;13371;52.080;5.624;2023-04-06T13:50:03;7.82;;;4.03;;
25449;SDS011;13371;52.080;5.624;2023-04-06T13:52:29;7.05;;;3.67;;
25449;SDS011;13371;52.080;5.624;2023-04-06T13:54:54;7.13;;;3.33;;
25449;SDS011;13371;52.080;5.624;2023-04-06T13:57:20;6.50;;;3.70;;
25449;SDS011;13371;52.080;5.624;2023-04-06T13:59:46;7.63;;;3.03;;
25449;SDS011;13371;52.080;5.624;2023-04-06T14:02:12;5.90;;;3.10;;
25449;SDS011;13371;52.080;5.624;2023-04-06T14:04:37;8.85;;;3.90;;
25449;SDS011;13371;52.080;5.624;2023-04-06T14:07:03;10.25;;;4.15;;
25449;SDS011;13371;52.080;5.624;2023-04-06T14:09:32;7.43;;;4.03;;
25449;SDS011;13371;52.080;5.624;2023-04-06T14:11:57;7.03;;;4.05;;
25449;SDS011;13371;52.080;5.624;2023-04-06T14:14:23;9.13;;;3.85;;
25449;SDS011;13371;52.080;5.624;2023-04-06T14:16:49;10.25;;;3.88;;
25449;SDS011;13371;52.080;5.624;2023-04-06T14:19:15;9.32;;;4.55;;
25449;SDS011;13371;52.080;5.624;2023-04-06T14:21:45;7.53;;;4.25;;
25449;SDS011;13371;52.080;5.624;2023-04-06T14:24:11;8.75;;;3.97;;
25449;SDS011;13371;52.080;5.624;2023-04-06T14:26:38;8.60;;;4.53;;
25449;SDS011;13371;52.080;5.624;2023-04-06T14:29:06;6.75;;;3.67;;
25449;SDS011;13371;52.080;5.624;2023-04-06T14:31:32;9.32;;;4.47;;
25449;SDS011;13371;52.080;5.624;2023-04-06T14:34:01;10.45;;;4.63;;
25449;SDS011;13371;52.080;5.624;2023-04-06T14:36:27;9.27;;;4.03;;
25449;SDS011;13371;52.080;5.624;2023-04-06T14:38:54;9.07;;;4.88;;
25449;SDS011;13371;52.080;5.624;2023-04-06T14:41:23;8.77;;;4.25;;
25449;SDS011;13371;52.080;5.624;2023-04-06T14:43:52;10.82;;;5.05;;